CLASSIFICATION TEAM 6 km TT
home
    idracetypedateroutekmelevation (m)Pos.PETTORALEFamily NameNamescoregenderteamNAZIONALITACATEGORIAPOSIZIONECATTimeReal
    time
    Average
    km/hr
    RW6 km TTTT14/12/2018 08:45:00unic6,0050,001110BakerJoshMRWBritishOpen Male1/2300:08:0600:08:0644,30
    RW6 km TTTT14/12/2018 08:45:00unic6,0050,00272DercoBrandonMRWAmericanVeteran Male1/2300:08:2400:08:2442,80
    RW6 km TTTT14/12/2018 08:45:00unic6,0050,0031AljarallahOmarMRWSaudiOpen Male2/2300:08:2600:08:2642,60
    RW6 km TTTT14/12/2018 08:45:00unic6,0050,00459BallMartinMRWBritishMaster Male1/1200:08:3400:08:3441,90
    RW6 km TTTT14/12/2018 08:45:00unic6,0050,00518PoetzschPatrickMRWGermanVeteran Male2/2300:08:4000:08:4041,50
    RW6 km TTTT14/12/2018 08:45:00unic6,0050,006219AlMsawiHossamMRWSaudiOpen Male3/2300:08:4400:08:4441,20
    RW6 km TTTT14/12/2018 08:45:00unic6,0050,0074KubaJiriMRWGermanSenior Male1/500:08:4700:08:4740,90
    RW6 km TTTT14/12/2018 08:45:00unic6,0050,008200ErasmusRonaldMRWSouth AfricanMaster Male2/1200:08:5300:08:5340,50
    RW6 km TTTT14/12/2018 08:45:00unic6,0050,00914AlHarbiMohammed1MRWSaudiOpen Male4/2300:08:5500:08:5540,30
    RW6 km TTTT14/12/2018 08:45:00unic6,0050,001044AlKhuwaiterRayanMRWSaudiOpen Male5/2300:08:5800:08:5840,10
    RW6 km TTTT14/12/2018 08:45:00unic6,0050,00116Dela RosaMichaelMRWFilipinoOpen Male6/2300:09:0200:09:0239,80
    RW6 km TTTT14/12/2018 08:45:00unic6,0050,0012104AlMutairiSultanMRWSaudiOpen Male7/2300:09:0400:09:0439,60
    RW6 km TTTT14/12/2018 08:45:00unic6,0050,001340JazaeriYamenMRWSyrianOpen Male8/2300:09:0600:09:0639,50
    RW6 km TTTT14/12/2018 08:45:00unic6,0050,001463AlNajjarRaedMRWPalestineVeteran Male3/2300:09:1300:09:1339,00
    RW6 km TTTT14/12/2018 08:45:00unic6,0050,001512McLeanJohnMRWBritishVeteran Male4/2300:09:1300:09:1339,00
    RW6 km TTTT14/12/2018 08:45:00unic6,0050,00167SolimanPercival JrMRWFilipinoVeteran Male5/2300:09:2000:09:2038,50
    RW6 km TTTT14/12/2018 08:45:00unic6,0050,001717PinanoAlfieMRWFilipinoOpen Male9/2300:09:2100:09:2138,40
    RW6 km TTTT14/12/2018 08:45:00unic6,0050,0018201AlshbeebRayanMRWSaudiOpen Male10/2300:09:2400:09:2438,20
    RW6 km TTTT14/12/2018 08:45:00unic6,0050,001924GankemaJeroenMRWNetherlandsVeteran Male6/2300:09:2800:09:2838,00
    RW6 km TTTT14/12/2018 08:45:00unic6,0050,002080ArafahAshrafMRWSaudiOpen Male11/2300:09:2800:09:2838,00
    RW6 km TTTT14/12/2018 08:45:00unic6,0050,002115AlBabtainAnasMRWSaudiVeteran Male7/2300:09:3300:09:3337,60
    RW6 km TTTT14/12/2018 08:45:00unic6,0050,002293ForeroYezithMRWColombianVeteran Male8/2300:09:3600:09:3637,50
    RW6 km TTTT14/12/2018 08:45:00unic6,0050,002336JohnsonDavidMRWAmericanOpen Male12/2300:09:3600:09:3637,40
    RW6 km TTTT14/12/2018 08:45:00unic6,0050,0024203AsiriAliMRWSaudiOpen Male13/2300:09:3900:09:3937,20
    RW6 km TTTT14/12/2018 08:45:00unic6,0050,002569DetomalBernardMRWFilipinoVeteran Male9/2300:09:4300:09:4337,00
    RW6 km TTTT14/12/2018 08:45:00unic6,0050,002623CalagoErwinMRWFilipinoVeteran Male10/2300:09:4500:09:4536,90
    RW6 km TTTT14/12/2018 08:45:00unic6,0050,00279WaightScottMRWNew ZealandVeteran Male11/2300:09:4600:09:4636,80
    RW6 km TTTT14/12/2018 08:45:00unic6,0050,0028206SulaimanFaisal AlSubaieMRWSaudiOpen Male14/2300:09:4600:09:4636,80
    RW6 km TTTT14/12/2018 08:45:00unic6,0050,0029212AlSaifMohammedMRWSaudiOpen Male15/2300:09:4700:09:4736,70
    RW6 km TTTT14/12/2018 08:45:00unic6,0050,0030113GicanaRamilMRWFilipinoVeteran Male12/2300:09:5100:09:5136,50
    RW6 km TTTT14/12/2018 08:45:00unic6,0050,0031213AlQahtaniAbdullahMRWSaudiOpen Male16/2300:09:5700:09:5736,10
    RW6 km TTTT14/12/2018 08:45:00unic6,0050,0032205AlGhashamMohammedMRWSaudiOpen Male17/2300:09:5700:09:5736,10
    RW6 km TTTT14/12/2018 08:45:00unic6,0050,003334SumonodJorgeMRWFilipinoOpen Male18/2300:09:5800:09:5836,10
    RW6 km TTTT14/12/2018 08:45:00unic6,0050,003449BakerAdeleMRWBritishVeteran Female100:09:5900:09:5936,00
    RW6 km TTTT14/12/2018 08:45:00unic6,0050,003573DollemanRogierMRWNetherlandsVeteran Male13/2300:09:5900:09:5936,00
    RW6 km TTTT14/12/2018 08:45:00unic6,0050,003639AltavasJose CortesMRWFilipinoVeteran Male14/2300:10:0200:10:0235,80
    RW6 km TTTT14/12/2018 08:45:00unic6,0050,0037123MarinasHerbert PaulMRWFilipinoOpen Male19/2300:10:0600:10:0635,60
    RW6 km TTTT14/12/2018 08:45:00unic6,0050,003831SungaJaimeMRWFilipinoMaster Male3/1200:10:0700:10:0735,50
    RW6 km TTTT14/12/2018 08:45:00unic6,0050,0039210AlSarhiAliMRWSaudiOpen Male20/2300:10:1300:10:1335,20
    RW6 km TTTT14/12/2018 08:45:00unic6,0050,004038TubangJulietoMRWFilipinoMaster Male4/1200:10:1300:10:1335,20
    RW6 km TTTT14/12/2018 08:45:00unic6,0050,004137LandoEdoardoMRWItalianSenior Male2/500:10:2300:10:2334,60
    RW6 km TTTT14/12/2018 08:45:00unic6,0050,004246CaceresMarvinMRWFilipinoVeteran Male15/2300:10:2400:10:2434,50
    RW6 km TTTT14/12/2018 08:45:00unic6,0050,0043202LandoFulvioMRWItalianVeteran Male16/2300:10:2700:10:2734,40
    RW6 km TTTT14/12/2018 08:45:00unic6,0050,004419SantosMarvinMRWFilipinoOpen Male21/2300:10:3000:10:3034,20
    RW6 km TTTT14/12/2018 08:45:00unic6,0050,0045209AlAbadAhmadMRWSaudiOpen Male22/2300:10:3100:10:3134,20
    RW6 km TTTT14/12/2018 08:45:00unic6,0050,0046211AlBadrBadrMRWSaudiMaster Male5/1200:10:3100:10:3134,20
    RW6 km TTTT14/12/2018 08:45:00unic6,0050,0047204SantosRurik IanMRWFilipinoVeteran Male17/2300:10:3400:10:3434,00
    RW6 km TTTT14/12/2018 08:45:00unic6,0050,004832OcaEdilbertoMRWFilipinoMaster Male6/1200:10:3600:10:3633,90
    RW6 km TTTT14/12/2018 08:45:00unic6,0050,0049128GicanaJunMRWFilipinoVeteran Male18/2300:10:3800:10:3833,80
    RW6 km TTTT14/12/2018 08:45:00unic6,0050,005041TolentinoWilliamMRWFilipinoMaster Male7/1200:10:3900:10:3933,70
    RW6 km TTTT14/12/2018 08:45:00unic6,0050,005178MaicanSorinMRWRomaniaVeteran Male19/2300:10:4100:10:4133,60
    RW6 km TTTT14/12/2018 08:45:00unic6,0050,0052217ClarkStephenMRWBritishSenior Male3/500:10:4600:10:4633,30
    RW6 km TTTT14/12/2018 08:45:00unic6,0050,0053117CordialJunMRWFilipinoVeteran Male20/2300:10:4800:10:4833,20
    RW6 km TTTT14/12/2018 08:45:00unic6,0050,0054214CalvertJillMRWBritishOpen Female1/400:11:0200:11:0232,50
    RW6 km TTTT14/12/2018 08:45:00unic6,0050,005582ManicdaoArielMRWFilipinoVeteran Male21/2300:11:0400:11:0432,50
    RW6 km TTTT14/12/2018 08:45:00unic6,0050,005633MarinasFlorie MRWFilipinoOpen Female2/400:11:0500:11:0532,40
    RW6 km TTTT14/12/2018 08:45:00unic6,0050,005771MendozaRichardMRWFilipinoVeteran Male22/2300:11:0600:11:0632,40
    RW6 km TTTT14/12/2018 08:45:00unic6,0050,005895AdesokanColinMRWAmericanMaster Male8/1200:11:0800:11:0832,30
    RW6 km TTTT14/12/2018 08:45:00unic6,0050,0059207AlMotiriAlooshMRWSaudiOpen Male23/2300:11:1400:11:1432,00
    RW6 km TTTT14/12/2018 08:45:00unic6,0050,006081JavierJessieMRWFilipinoMaster Male9/1200:11:1900:11:1931,70
    RW6 km TTTT14/12/2018 08:45:00unic6,0050,006128EllaBenedictMRWFilipinoMaster Male10/1200:11:2500:11:2531,50
    RW6 km TTTT14/12/2018 08:45:00unic6,0050,0062215RahimaldeenSarahMRWSaudiOpen Female3/400:11:3700:11:3730,90
    RW6 km TTTT14/12/2018 08:45:00unic6,0050,0063100AraujoMariaMRWItalianMaster Female100:11:5100:11:5130,30
    RW6 km TTTT14/12/2018 08:45:00unic6,0050,006470LandoLuigi MRWItalianSenior Male4/500:12:1200:12:1229,50
    RW6 km TTTT14/12/2018 08:45:00unic6,0050,006553FerreiraCarolineMRWBrazilianOpen Female4/400:12:2100:12:2129,10
    RW6 km TTTT14/12/2018 08:45:00unic6,0050,0066216HollandJean-MarcMRWBelgianMaster Male11/1200:12:2600:12:2628,90
    RW6 km TTTT14/12/2018 08:45:00unic6,0050,006794MahfouzTalalMRWFrenchSenior Male5/500:12:5500:12:5527,80
    RW6 km TTTT14/12/2018 08:45:00unic6,0050,006854AlsarhaniAbdullahMRWSaudiMaster Male12/1200:13:0100:13:0127,60
    RW6 km TTTT14/12/2018 08:45:00unic6,0050,006962CrepaldiGustavoMRWBrazilianVeteran Male23/2300:13:0800:13:0827,30
    RW6 km TTTT14/12/2018 08:30:00unic6,0050,007076ArmanaziAsaadMRWCanadianVeteran Male2400:14:5800:14:5824,00
    idracetypedateroute420,00
    km
    3500
    dislivello
    70
    n
    BIDFamily NameNamescoregenderteamNationalityCategoryPos.Cat.TimeReal
    time
    Average
    km/hr
Baker JoshAljarallah OmarKuba JiriAlHarbi MohammedDela Rosa MichaelMcLean JohnSoliman Percival JrGankema JeroenArafah AshrafForero YezithJohnson DavidDetomal BernardCalago ErwinWaight ScottGicana RamilSumonod JorgeBaker AdeleDolleman RogierAltavas Jose CortesMarinas Herbert Paul
Sunga JaimeLando EdoardoCaceres MarvinSantos Rurik IanOca EdilbertoTolentino WilliamMaican SorinClark StephenCordial JunMendoza RichardJavier JessieElla BenedictAraujo MariaMahfouz TalalAlsarhani AbdullahArmanazi Asaad

6 km TT Athletes TEAM (first 200)

FIND ATHLETES races saved
find results also athletes others team
Fam.Name: Name:
rem: to insert Family name (It is simply a part of word)

FIND TEAM Races saved
You can find the result of others team
TEAM: RACE: ROUTE:
rem: to insert one team (It is simply a part of word)


home